Maersk Lirquen — VRKB8 — position and weather

sailwx.info

Track history (hours):
 
Tides and Currents Weather Stations Pressure Air Temp Water Temp Dewpoint Dewpoint Depression Visibility Wind Speed Wind Dir Waves Ship Positions

Maersk Lirquen

Last reported at 2015-Jul-03 22:33 UTC. Time now 2015-Jul-04 10:08 UTC.
Position N 22°21' E 114°33'.

Length 300 m; draft 12.4 m.

Type: Ship (hazmat cat A). MMSI: 477423500.

Date/timePositionNaut miles runAvg speedWind from/ knotsBaromVisibWave heightAir tempDewpointWater temp
2015-Jul-03 22:33N 22°21' E 114°33'14215.4
2015-Jul-03 13:17N 22°57' E 117°03'1216.4
2015-Jul-03 12:32N 23°04' E 117°14'3416.1
2015-Jul-03 10:27N 23°25' E 117°42'1516.6
2015-Jul-03 09:33N 23°34' E 117°55'3215.6
2015-Jul-03 07:32N 23°54' E 118°21'1515.3
2015-Jul-03 06:33N 24°04' E 118°34'1615.4
2015-Jul-03 05:32N 24°14' E 118°47'1515.0
2015-Jul-03 04:33N 24°24' E 118°59'1414.3
2015-Jul-03 03:33N 24°33' E 119°11'34014.6
2015-Jul-02 04:17N 29°23' E 122°31'1215.4
2015-Jul-02 03:30N 29°35' E 122°32'1314.3
2015-Jul-02 02:33N 29°44' E 122°21'1010.3
2015-Jul-02 01:33N 29°51' E 122°12'1110.9
2015-Jul-02 00:33N 29°46' E 122°00'0 0.0
2015-Jul-01 22:28N 29°46' E 122°00'0 0.0
2015-Jul-01 21:16N 29°46' E 122°00'0 0.0
2015-Jul-01 18:28N 29°46' E 122°00'0 0.0
2015-Jul-01 14:22N 29°46' E 122°00'0 0.0
2015-Jul-01 11:16N 29°46' E 122°00'0 0.0
2015-Jul-01 10:22N 29°46' E 122°00'0 0.0
2015-Jul-01 09:28N 29°46' E 122°00'0 0.0
2015-Jul-01 08:22N 29°46' E 122°00'3 4.3
2015-Jul-01 07:33N 29°48' E 122°04'9 9.3
2015-Jul-01 06:33N 29°48' E 122°15'8 8.5
2015-Jul-01 05:33N 29°44' E 122°23'1212.5
2015-Jul-01 04:33N 29°46' E 122°37'1616.0
2015-Jul-01 03:33N 29°56' E 122°52'2613.0
2015-Jul-01 01:33N 30°22' E 122°54'1716.3
2015-Jul-01 00:32N 30°29' E 122°36'1615.9
2015-Jun-30 23:31N 30°33' E 122°18'1212.5
2015-Jun-30 22:33N 30°36' E 122°05'2 0.1
2015-Jun-30 09:33N 30°37' E 122°03'1211.3
2015-Jun-30 08:32N 30°33' E 122°16'5 4.9
2015-Jun-30 07:30N 30°33' E 122°22'8 8.6
2015-Jun-30 06:33N 30°30' E 122°31'1 0.1
2015-Jun-29 21:21N 30°29' E 122°32'0 0.1
2015-Jun-29 20:33N 30°29' E 122°32'0 0.1
2015-Jun-29 19:33N 30°29' E 122°32'0 0.1
2015-Jun-29 18:33N 30°29' E 122°32'0 0.1
2015-Jun-29 17:33N 30°29' E 122°32'2 0.1
2015-Jun-28 13:33N 30°31' E 122°31'7 7.5
2015-Jun-28 12:33N 30°35' E 122°39'10 9.7
2015-Jun-28 11:32N 30°35' E 122°51'12 9.5
2015-Jun-28 10:16N 30°36' E 123°05'  
Track history (hours):
 
Tides and Currents Weather Stations Pressure Air Temp Water Temp Dewpoint Dewpoint Depression Visibility Wind Speed Wind Dir Waves Ship Positions

Maersk Lirquen

Last reported at 2015-Jul-03 22:33 UTC. Time now 2015-Jul-04 10:08 UTC.
Position N 22°21' E 114°33'.

Length 300 m; draft 12.4 m.

Type: Ship (hazmat cat A). MMSI: 477423500.

Date/timePositionNaut miles runAvg speedWind from/ knotsBaromVisibWave heightAir tempDewpointWater temp
2015-Jul-03 22:33N 22°21' E 114°33'14215.4
2015-Jul-03 13:17N 22°57' E 117°03'1216.4
2015-Jul-03 12:32N 23°04' E 117°14'3416.1
2015-Jul-03 10:27N 23°25' E 117°42'1516.6
2015-Jul-03 09:33N 23°34' E 117°55'3215.6
2015-Jul-03 07:32N 23°54' E 118°21'1515.3
2015-Jul-03 06:33N 24°04' E 118°34'1615.4
2015-Jul-03 05:32N 24°14' E 118°47'1515.0
2015-Jul-03 04:33N 24°24' E 118°59'1414.3
2015-Jul-03 03:33N 24°33' E 119°11'34014.6
2015-Jul-02 04:17N 29°23' E 122°31'1215.4
2015-Jul-02 03:30N 29°35' E 122°32'1314.3
2015-Jul-02 02:33N 29°44' E 122°21'1010.3
2015-Jul-02 01:33N 29°51' E 122°12'1110.9
2015-Jul-02 00:33N 29°46' E 122°00'0 0.0
2015-Jul-01 22:28N 29°46' E 122°00'0 0.0
2015-Jul-01 21:16N 29°46' E 122°00'0 0.0
2015-Jul-01 18:28N 29°46' E 122°00'0 0.0
2015-Jul-01 14:22N 29°46' E 122°00'0 0.0
2015-Jul-01 11:16N 29°46' E 122°00'0 0.0
2015-Jul-01 10:22N 29°46' E 122°00'0 0.0
2015-Jul-01 09:28N 29°46' E 122°00'0 0.0
2015-Jul-01 08:22N 29°46' E 122°00'3 4.3
2015-Jul-01 07:33N 29°48' E 122°04'9 9.3
2015-Jul-01 06:33N 29°48' E 122°15'8 8.5
2015-Jul-01 05:33N 29°44' E 122°23'1212.5
2015-Jul-01 04:33N 29°46' E 122°37'1616.0
2015-Jul-01 03:33N 29°56' E 122°52'2613.0
2015-Jul-01 01:33N 30°22' E 122°54'1716.3
2015-Jul-01 00:32N 30°29' E 122°36'1615.9
2015-Jun-30 23:31N 30°33' E 122°18'1212.5
2015-Jun-30 22:33N 30°36' E 122°05'2 0.1
2015-Jun-30 09:33N 30°37' E 122°03'1211.3
2015-Jun-30 08:32N 30°33' E 122°16'5 4.9
2015-Jun-30 07:30N 30°33' E 122°22'8 8.6
2015-Jun-30 06:33N 30°30' E 122°31'1 0.1
2015-Jun-29 21:21N 30°29' E 122°32'0 0.1
2015-Jun-29 20:33N 30°29' E 122°32'0 0.1
2015-Jun-29 19:33N 30°29' E 122°32'0 0.1
2015-Jun-29 18:33N 30°29' E 122°32'0 0.1
2015-Jun-29 17:33N 30°29' E 122°32'2 0.1
2015-Jun-28 13:33N 30°31' E 122°31'7 7.5
2015-Jun-28 12:33N 30°35' E 122°39'10 9.7
2015-Jun-28 11:32N 30°35' E 122°51'12 9.5
2015-Jun-28 10:16N 30°36' E 123°05'  

Dump ship's entire track history